sensor_id;sensor_type;location;lat;lon;timestamp;P1;durP1;ratioP1;P2;durP2;ratioP2
11927;SDS011;6023;47.070;15.126;2022-12-16T00:01:22;32.50;;;25.90;;
11927;SDS011;6023;47.070;15.126;2022-12-16T00:03:52;36.23;;;27.40;;
11927;SDS011;6023;47.070;15.126;2022-12-16T00:06:21;34.77;;;26.73;;
11927;SDS011;6023;47.070;15.126;2022-12-16T00:08:52;33.70;;;26.70;;
11927;SDS011;6023;47.070;15.126;2022-12-16T00:11:21;34.73;;;27.10;;
11927;SDS011;6023;47.070;15.126;2022-12-16T00:13:50;34.03;;;27.50;;
11927;SDS011;6023;47.070;15.126;2022-12-16T00:16:20;33.47;;;26.97;;
11927;SDS011;6023;47.070;15.126;2022-12-16T00:18:49;35.50;;;27.80;;
11927;SDS011;6023;47.070;15.126;2022-12-16T00:21:18;35.10;;;27.23;;
11927;SDS011;6023;47.070;15.126;2022-12-16T00:23:46;33.20;;;26.27;;
11927;SDS011;6023;47.070;15.126;2022-12-16T00:26:16;34.83;;;26.60;;
11927;SDS011;6023;47.070;15.126;2022-12-16T00:28:45;34.77;;;26.77;;
11927;SDS011;6023;47.070;15.126;2022-12-16T00:31:13;34.73;;;27.20;;
11927;SDS011;6023;47.070;15.126;2022-12-16T00:33:42;33.40;;;26.23;;
11927;SDS011;6023;47.070;15.126;2022-12-16T00:36:11;31.63;;;25.23;;
11927;SDS011;6023;47.070;15.126;2022-12-16T00:38:39;34.30;;;26.90;;
11927;SDS011;6023;47.070;15.126;2022-12-16T00:41:08;34.47;;;27.43;;
11927;SDS011;6023;47.070;15.126;2022-12-16T00:43:38;32.23;;;26.47;;
11927;SDS011;6023;47.070;15.126;2022-12-16T00:46:06;32.80;;;25.50;;
11927;SDS011;6023;47.070;15.126;2022-12-16T00:48:35;34.60;;;27.23;;
11927;SDS011;6023;47.070;15.126;2022-12-16T00:51:04;32.77;;;26.47;;
11927;SDS011;6023;47.070;15.126;2022-12-16T00:53:32;34.03;;;27.03;;
11927;SDS011;6023;47.070;15.126;2022-12-16T00:56:02;31.80;;;26.53;;
11927;SDS011;6023;47.070;15.126;2022-12-16T00:58:31;32.97;;;26.10;;
11927;SDS011;6023;47.070;15.126;2022-12-16T01:01:01;31.03;;;24.87;;
11927;SDS011;6023;47.070;15.126;2022-12-16T01:03:30;32.53;;;25.67;;
11927;SDS011;6023;47.070;15.126;2022-12-16T01:05:59;31.03;;;25.20;;
11927;SDS011;6023;47.070;15.126;2022-12-16T01:08:28;32.37;;;25.53;;
11927;SDS011;6023;47.070;15.126;2022-12-16T01:10:56;31.63;;;24.90;;
11927;SDS011;6023;47.070;15.126;2022-12-16T01:13:25;31.03;;;26.47;;
11927;SDS011;6023;47.070;15.126;2022-12-16T01:15:54;33.50;;;25.93;;
11927;SDS011;6023;47.070;15.126;2022-12-16T01:18:27;31.97;;;25.63;;
11927;SDS011;6023;47.070;15.126;2022-12-16T01:21:00;30.20;;;25.47;;
11927;SDS011;6023;47.070;15.126;2022-12-16T01:23:29;33.13;;;26.70;;
11927;SDS011;6023;47.070;15.126;2022-12-16T01:25:59;32.17;;;25.30;;
11927;SDS011;6023;47.070;15.126;2022-12-16T01:28:28;30.67;;;25.80;;
11927;SDS011;6023;47.070;15.126;2022-12-16T01:30:57;31.73;;;25.90;;
11927;SDS011;6023;47.070;15.126;2022-12-16T01:33:30;32.70;;;25.73;;
11927;SDS011;6023;47.070;15.126;2022-12-16T01:36:00;30.03;;;25.03;;
11927;SDS011;6023;47.070;15.126;2022-12-16T01:38:30;32.60;;;25.27;;
11927;SDS011;6023;47.070;15.126;2022-12-16T01:40:58;32.27;;;26.27;;
11927;SDS011;6023;47.070;15.126;2022-12-16T01:43:28;34.10;;;27.20;;
11927;SDS011;6023;47.070;15.126;2022-12-16T01:45:59;32.77;;;26.77;;
11927;SDS011;6023;47.070;15.126;2022-12-16T01:48:33;32.37;;;26.70;;
11927;SDS011;6023;47.070;15.126;2022-12-16T01:51:07;32.80;;;26.27;;
11927;SDS011;6023;47.070;15.126;2022-12-16T01:53:38;32.37;;;26.37;;
11927;SDS011;6023;47.070;15.126;2022-12-16T01:56:09;30.60;;;25.47;;
11927;SDS011;6023;47.070;15.126;2022-12-16T01:58:40;33.87;;;26.30;;
11927;SDS011;6023;47.070;15.126;2022-12-16T02:01:10;32.77;;;26.60;;
11927;SDS011;6023;47.070;15.126;2022-12-16T02:03:40;32.20;;;26.33;;
11927;SDS011;6023;47.070;15.126;2022-12-16T02:06:09;35.40;;;28.03;;
11927;SDS011;6023;47.070;15.126;2022-12-16T02:08:38;35.67;;;27.70;;
11927;SDS011;6023;47.070;15.126;2022-12-16T02:11:10;35.37;;;27.53;;
11927;SDS011;6023;47.070;15.126;2022-12-16T02:13:59;34.50;;;26.53;;
11927;SDS011;6023;47.070;15.126;2022-12-16T02:16:37;34.70;;;27.17;;
11927;SDS011;6023;47.070;15.126;2022-12-16T02:19:33;33.57;;;26.97;;
11927;SDS011;6023;47.070;15.126;2022-12-16T02:22:28;33.50;;;26.77;;
11927;SDS011;6023;47.070;15.126;2022-12-16T02:28:11;32.63;;;26.40;;
11927;SDS011;6023;47.070;15.126;2022-12-16T02:31:04;33.03;;;27.17;;
11927;SDS011;6023;47.070;15.126;2022-12-16T02:36:40;30.57;;;24.90;;
11927;SDS011;6023;47.070;15.126;2022-12-16T02:39:16;31.87;;;25.07;;
11927;SDS011;6023;47.070;15.126;2022-12-16T02:41:49;30.57;;;24.63;;
11927;SDS011;6023;47.070;15.126;2022-12-16T02:44:21;29.27;;;24.23;;
11927;SDS011;6023;47.070;15.126;2022-12-16T02:46:56;30.33;;;24.07;;
11927;SDS011;6023;47.070;15.126;2022-12-16T02:52:13;31.83;;;25.40;;
11927;SDS011;6023;47.070;15.126;2022-12-16T02:54:42;29.50;;;23.93;;
11927;SDS011;6023;47.070;15.126;2022-12-16T02:57:15;30.77;;;24.27;;
11927;SDS011;6023;47.070;15.126;2022-12-16T02:59:52;28.63;;;23.67;;
11927;SDS011;6023;47.070;15.126;2022-12-16T03:02:25;30.07;;;24.67;;
11927;SDS011;6023;47.070;15.126;2022-12-16T03:04:58;29.90;;;25.13;;
11927;SDS011;6023;47.070;15.126;2022-12-16T03:07:31;30.80;;;26.10;;
11927;SDS011;6023;47.070;15.126;2022-12-16T03:10:03;31.27;;;24.97;;
11927;SDS011;6023;47.070;15.126;2022-12-16T03:12:33;33.53;;;26.30;;
11927;SDS011;6023;47.070;15.126;2022-12-16T03:15:02;31.87;;;26.03;;
11927;SDS011;6023;47.070;15.126;2022-12-16T03:17:34;31.67;;;26.60;;
11927;SDS011;6023;47.070;15.126;2022-12-16T03:20:06;32.90;;;25.80;;
11927;SDS011;6023;47.070;15.126;2022-12-16T03:22:37;34.03;;;26.37;;
11927;SDS011;6023;47.070;15.126;2022-12-16T03:25:09;34.23;;;26.37;;
11927;SDS011;6023;47.070;15.126;2022-12-16T03:27:38;35.57;;;27.13;;
11927;SDS011;6023;47.070;15.126;2022-12-16T03:30:12;33.83;;;27.53;;
11927;SDS011;6023;47.070;15.126;2022-12-16T03:32:45;34.47;;;26.53;;
11927;SDS011;6023;47.070;15.126;2022-12-16T03:35:18;33.07;;;27.27;;
11927;SDS011;6023;47.070;15.126;2022-12-16T03:37:50;40.10;;;31.77;;
11927;SDS011;6023;47.070;15.126;2022-12-16T03:40:20;39.23;;;32.17;;
11927;SDS011;6023;47.070;15.126;2022-12-16T03:42:50;34.30;;;27.80;;
11927;SDS011;6023;47.070;15.126;2022-12-16T03:45:21;33.00;;;27.67;;
11927;SDS011;6023;47.070;15.126;2022-12-16T03:47:55;35.20;;;27.73;;
11927;SDS011;6023;47.070;15.126;2022-12-16T03:50:25;33.47;;;27.73;;
11927;SDS011;6023;47.070;15.126;2022-12-16T03:52:55;30.70;;;25.63;;
11927;SDS011;6023;47.070;15.126;2022-12-16T03:55:23;33.77;;;27.57;;
11927;SDS011;6023;47.070;15.126;2022-12-16T03:57:52;33.27;;;27.10;;
11927;SDS011;6023;47.070;15.126;2022-12-16T04:00:21;36.90;;;28.23;;
11927;SDS011;6023;47.070;15.126;2022-12-16T04:02:50;32.23;;;26.17;;
11927;SDS011;6023;47.070;15.126;2022-12-16T04:05:20;31.73;;;25.63;;
11927;SDS011;6023;47.070;15.126;2022-12-16T04:07:49;32.87;;;26.67;;
11927;SDS011;6023;47.070;15.126;2022-12-16T04:10:23;33.30;;;25.93;;
11927;SDS011;6023;47.070;15.126;2022-12-16T04:13:06;33.67;;;27.37;;
11927;SDS011;6023;47.070;15.126;2022-12-16T04:15:52;31.83;;;25.73;;
11927;SDS011;6023;47.070;15.126;2022-12-16T04:18:39;32.30;;;25.97;;
11927;SDS011;6023;47.070;15.126;2022-12-16T04:21:26;35.03;;;27.80;;
11927;SDS011;6023;47.070;15.126;2022-12-16T04:24:14;34.00;;;27.63;;
11927;SDS011;6023;47.070;15.126;2022-12-16T04:26:48;32.93;;;26.30;;
11927;SDS011;6023;47.070;15.126;2022-12-16T04:29:41;32.97;;;26.37;;
11927;SDS011;6023;47.070;15.126;2022-12-16T04:32:23;35.30;;;27.50;;
11927;SDS011;6023;47.070;15.126;2022-12-16T04:34:52;32.27;;;26.30;;
11927;SDS011;6023;47.070;15.126;2022-12-16T04:37:21;32.57;;;26.50;;
11927;SDS011;6023;47.070;15.126;2022-12-16T04:40:07;32.30;;;26.70;;
11927;SDS011;6023;47.070;15.126;2022-12-16T04:42:54;32.50;;;27.03;;
11927;SDS011;6023;47.070;15.126;2022-12-16T04:45:40;35.80;;;28.10;;
11927;SDS011;6023;47.070;15.126;2022-12-16T04:48:30;34.77;;;27.80;;
11927;SDS011;6023;47.070;15.126;2022-12-16T04:51:17;34.20;;;26.53;;
11927;SDS011;6023;47.070;15.126;2022-12-16T04:54:04;31.93;;;25.33;;
11927;SDS011;6023;47.070;15.126;2022-12-16T04:56:50;34.33;;;28.43;;
11927;SDS011;6023;47.070;15.126;2022-12-16T04:59:36;35.40;;;27.13;;
11927;SDS011;6023;47.070;15.126;2022-12-16T05:02:21;33.23;;;26.80;;
11927;SDS011;6023;47.070;15.126;2022-12-16T05:05:08;33.03;;;26.80;;
11927;SDS011;6023;47.070;15.126;2022-12-16T05:07:53;34.53;;;26.07;;
11927;SDS011;6023;47.070;15.126;2022-12-16T05:10:46;34.50;;;26.80;;
11927;SDS011;6023;47.070;15.126;2022-12-16T05:13:32;29.63;;;23.53;;
11927;SDS011;6023;47.070;15.126;2022-12-16T05:16:18;30.13;;;24.20;;
11927;SDS011;6023;47.070;15.126;2022-12-16T05:19:04;32.17;;;25.27;;
11927;SDS011;6023;47.070;15.126;2022-12-16T05:21:57;34.50;;;27.20;;
11927;SDS011;6023;47.070;15.126;2022-12-16T05:24:42;35.73;;;28.00;;
11927;SDS011;6023;47.070;15.126;2022-12-16T05:27:30;33.73;;;26.17;;
11927;SDS011;6023;47.070;15.126;2022-12-16T05:30:25;34.33;;;26.53;;
11927;SDS011;6023;47.070;15.126;2022-12-16T05:33:11;38.70;;;29.17;;
11927;SDS011;6023;47.070;15.126;2022-12-16T05:35:57;37.17;;;29.00;;
11927;SDS011;6023;47.070;15.126;2022-12-16T05:38:43;40.80;;;30.97;;
11927;SDS011;6023;47.070;15.126;2022-12-16T05:41:29;36.53;;;28.90;;
11927;SDS011;6023;47.070;15.126;2022-12-16T05:44:16;36.17;;;28.07;;
11927;SDS011;6023;47.070;15.126;2022-12-16T05:47:02;36.97;;;29.17;;
11927;SDS011;6023;47.070;15.126;2022-12-16T05:49:48;37.10;;;28.67;;
11927;SDS011;6023;47.070;15.126;2022-12-16T05:52:34;34.47;;;27.27;;
11927;SDS011;6023;47.070;15.126;2022-12-16T05:55:20;35.77;;;27.03;;
11927;SDS011;6023;47.070;15.126;2022-12-16T05:58:06;33.87;;;27.10;;
11927;SDS011;6023;47.070;15.126;2022-12-16T06:00:53;34.33;;;27.70;;
11927;SDS011;6023;47.070;15.126;2022-12-16T06:03:54;36.73;;;28.10;;
11927;SDS011;6023;47.070;15.126;2022-12-16T06:06:43;35.70;;;27.83;;
11927;SDS011;6023;47.070;15.126;2022-12-16T06:09:30;32.70;;;27.57;;
11927;SDS011;6023;47.070;15.126;2022-12-16T06:12:23;35.10;;;28.10;;
11927;SDS011;6023;47.070;15.126;2022-12-16T06:15:09;33.97;;;27.30;;
11927;SDS011;6023;47.070;15.126;2022-12-16T06:17:56;36.93;;;29.77;;
11927;SDS011;6023;47.070;15.126;2022-12-16T06:20:42;32.97;;;26.97;;
11927;SDS011;6023;47.070;15.126;2022-12-16T06:23:28;35.27;;;28.30;;
11927;SDS011;6023;47.070;15.126;2022-12-16T06:26:14;35.83;;;29.07;;
11927;SDS011;6023;47.070;15.126;2022-12-16T06:29:00;36.23;;;28.47;;
11927;SDS011;6023;47.070;15.126;2022-12-16T06:31:46;37.57;;;29.47;;
11927;SDS011;6023;47.070;15.126;2022-12-16T06:34:34;51.50;;;44.42;;
11927;SDS011;6023;47.070;15.126;2022-12-16T06:37:20;48.47;;;37.73;;
11927;SDS011;6023;47.070;15.126;2022-12-16T06:40:06;49.10;;;38.27;;
11927;SDS011;6023;47.070;15.126;2022-12-16T06:42:53;46.00;;;35.13;;
11927;SDS011;6023;47.070;15.126;2022-12-16T06:45:39;45.93;;;34.50;;
11927;SDS011;6023;47.070;15.126;2022-12-16T06:48:25;44.33;;;33.60;;
11927;SDS011;6023;47.070;15.126;2022-12-16T06:51:12;47.23;;;35.13;;
11927;SDS011;6023;47.070;15.126;2022-12-16T06:53:58;43.30;;;33.80;;
11927;SDS011;6023;47.070;15.126;2022-12-16T06:56:44;49.80;;;36.57;;
11927;SDS011;6023;47.070;15.126;2022-12-16T06:59:30;46.50;;;35.70;;
11927;SDS011;6023;47.070;15.126;2022-12-16T07:02:16;46.73;;;35.70;;
11927;SDS011;6023;47.070;15.126;2022-12-16T07:05:14;49.70;;;35.70;;
11927;SDS011;6023;47.070;15.126;2022-12-16T07:08:01;47.57;;;35.73;;
11927;SDS011;6023;47.070;15.126;2022-12-16T07:10:48;50.73;;;37.93;;
11927;SDS011;6023;47.070;15.126;2022-12-16T07:13:42;49.80;;;37.77;;
11927;SDS011;6023;47.070;15.126;2022-12-16T07:16:28;44.13;;;33.40;;
11927;SDS011;6023;47.070;15.126;2022-12-16T07:19:14;44.27;;;34.23;;
11927;SDS011;6023;47.070;15.126;2022-12-16T07:22:00;51.33;;;37.60;;
11927;SDS011;6023;47.070;15.126;2022-12-16T07:24:47;46.87;;;34.57;;
11927;SDS011;6023;47.070;15.126;2022-12-16T07:27:33;45.80;;;33.87;;
11927;SDS011;6023;47.070;15.126;2022-12-16T07:30:19;46.70;;;34.40;;
11927;SDS011;6023;47.070;15.126;2022-12-16T07:33:05;45.97;;;32.30;;
11927;SDS011;6023;47.070;15.126;2022-12-16T07:35:51;44.67;;;34.03;;
11927;SDS011;6023;47.070;15.126;2022-12-16T07:38:37;50.87;;;36.80;;
11927;SDS011;6023;47.070;15.126;2022-12-16T07:41:25;49.27;;;36.07;;
11927;SDS011;6023;47.070;15.126;2022-12-16T07:44:10;49.07;;;35.77;;
11927;SDS011;6023;47.070;15.126;2022-12-16T07:46:57;51.33;;;36.63;;
11927;SDS011;6023;47.070;15.126;2022-12-16T07:49:43;52.07;;;36.20;;
11927;SDS011;6023;47.070;15.126;2022-12-16T07:52:29;45.37;;;33.77;;
11927;SDS011;6023;47.070;15.126;2022-12-16T07:55:15;61.07;;;43.17;;
11927;SDS011;6023;47.070;15.126;2022-12-16T07:58:02;55.90;;;38.37;;
11927;SDS011;6023;47.070;15.126;2022-12-16T08:00:47;47.40;;;36.73;;
11927;SDS011;6023;47.070;15.126;2022-12-16T08:03:35;48.40;;;37.20;;
11927;SDS011;6023;47.070;15.126;2022-12-16T08:06:22;46.77;;;37.43;;
11927;SDS011;6023;47.070;15.126;2022-12-16T08:09:08;48.60;;;37.77;;
11927;SDS011;6023;47.070;15.126;2022-12-16T08:11:54;46.67;;;35.70;;
11927;SDS011;6023;47.070;15.126;2022-12-16T08:14:41;52.13;;;37.50;;
11927;SDS011;6023;47.070;15.126;2022-12-16T08:17:27;48.20;;;36.80;;
11927;SDS011;6023;47.070;15.126;2022-12-16T08:20:13;43.47;;;33.53;;
11927;SDS011;6023;47.070;15.126;2022-12-16T08:22:59;45.47;;;34.80;;
11927;SDS011;6023;47.070;15.126;2022-12-16T08:25:45;46.10;;;35.70;;
11927;SDS011;6023;47.070;15.126;2022-12-16T08:28:32;47.27;;;34.10;;
11927;SDS011;6023;47.070;15.126;2022-12-16T08:31:19;47.90;;;35.17;;
11927;SDS011;6023;47.070;15.126;2022-12-16T08:34:05;53.27;;;38.07;;
11927;SDS011;6023;47.070;15.126;2022-12-16T08:36:52;47.90;;;35.17;;
11927;SDS011;6023;47.070;15.126;2022-12-16T08:39:37;79.40;;;57.73;;
11927;SDS011;6023;47.070;15.126;2022-12-16T08:42:43;57.23;;;44.53;;
11927;SDS011;6023;47.070;15.126;2022-12-16T08:45:38;47.57;;;36.17;;
11927;SDS011;6023;47.070;15.126;2022-12-16T08:48:26;53.00;;;35.97;;
11927;SDS011;6023;47.070;15.126;2022-12-16T08:51:12;47.27;;;35.53;;
11927;SDS011;6023;47.070;15.126;2022-12-16T08:53:58;50.60;;;37.27;;
11927;SDS011;6023;47.070;15.126;2022-12-16T08:56:44;47.23;;;35.33;;
11927;SDS011;6023;47.070;15.126;2022-12-16T08:59:29;45.10;;;34.53;;
11927;SDS011;6023;47.070;15.126;2022-12-16T09:02:19;43.23;;;33.23;;
11927;SDS011;6023;47.070;15.126;2022-12-16T09:05:08;46.60;;;33.97;;
11927;SDS011;6023;47.070;15.126;2022-12-16T09:07:57;54.83;;;38.10;;
11927;SDS011;6023;47.070;15.126;2022-12-16T09:10:45;50.63;;;37.33;;
11927;SDS011;6023;47.070;15.126;2022-12-16T09:13:31;49.93;;;36.63;;
11927;SDS011;6023;47.070;15.126;2022-12-16T09:16:21;49.17;;;37.07;;
11927;SDS011;6023;47.070;15.126;2022-12-16T09:19:08;48.63;;;36.10;;
11927;SDS011;6023;47.070;15.126;2022-12-16T09:21:56;46.57;;;34.90;;
11927;SDS011;6023;47.070;15.126;2022-12-16T09:24:42;45.50;;;34.30;;
11927;SDS011;6023;47.070;15.126;2022-12-16T09:27:28;48.63;;;37.07;;
11927;SDS011;6023;47.070;15.126;2022-12-16T09:30:14;48.37;;;35.00;;
11927;SDS011;6023;47.070;15.126;2022-12-16T09:33:00;47.03;;;34.37;;
11927;SDS011;6023;47.070;15.126;2022-12-16T09:35:47;44.83;;;34.40;;
11927;SDS011;6023;47.070;15.126;2022-12-16T09:38:34;47.30;;;36.23;;
11927;SDS011;6023;47.070;15.126;2022-12-16T09:41:26;52.83;;;39.70;;
11927;SDS011;6023;47.070;15.126;2022-12-16T09:44:22;47.77;;;35.40;;
11927;SDS011;6023;47.070;15.126;2022-12-16T09:47:16;44.63;;;34.93;;
11927;SDS011;6023;47.070;15.126;2022-12-16T09:50:12;45.37;;;33.97;;
11927;SDS011;6023;47.070;15.126;2022-12-16T09:53:03;42.40;;;32.37;;
11927;SDS011;6023;47.070;15.126;2022-12-16T09:55:53;43.80;;;31.83;;
11927;SDS011;6023;47.070;15.126;2022-12-16T09:58:40;42.50;;;31.13;;
11927;SDS011;6023;47.070;15.126;2022-12-16T10:01:27;43.50;;;33.10;;
11927;SDS011;6023;47.070;15.126;2022-12-16T10:04:15;44.00;;;35.00;;
11927;SDS011;6023;47.070;15.126;2022-12-16T10:07:01;44.30;;;33.27;;
11927;SDS011;6023;47.070;15.126;2022-12-16T10:09:49;46.50;;;35.50;;
11927;SDS011;6023;47.070;15.126;2022-12-16T10:12:45;45.27;;;34.50;;
11927;SDS011;6023;47.070;15.126;2022-12-16T10:15:35;50.90;;;36.10;;
11927;SDS011;6023;47.070;15.126;2022-12-16T10:18:25;50.13;;;36.57;;
11927;SDS011;6023;47.070;15.126;2022-12-16T10:21:17;45.50;;;34.07;;
11927;SDS011;6023;47.070;15.126;2022-12-16T10:24:07;50.47;;;37.53;;
11927;SDS011;6023;47.070;15.126;2022-12-16T10:27:02;54.43;;;39.00;;
11927;SDS011;6023;47.070;15.126;2022-12-16T10:29:53;50.73;;;37.93;;
11927;SDS011;6023;47.070;15.126;2022-12-16T10:32:40;65.60;;;49.20;;
11927;SDS011;6023;47.070;15.126;2022-12-16T10:35:28;58.67;;;45.47;;
11927;SDS011;6023;47.070;15.126;2022-12-16T10:38:17;54.33;;;41.73;;
11927;SDS011;6023;47.070;15.126;2022-12-16T10:41:06;52.20;;;39.97;;
11927;SDS011;6023;47.070;15.126;2022-12-16T10:43:53;46.53;;;36.23;;
11927;SDS011;6023;47.070;15.126;2022-12-16T10:46:41;55.97;;;40.17;;
11927;SDS011;6023;47.070;15.126;2022-12-16T10:49:27;51.23;;;39.17;;
11927;SDS011;6023;47.070;15.126;2022-12-16T10:52:20;53.97;;;41.10;;
11927;SDS011;6023;47.070;15.126;2022-12-16T10:55:10;55.20;;;40.40;;
11927;SDS011;6023;47.070;15.126;2022-12-16T10:58:01;52.80;;;39.43;;
11927;SDS011;6023;47.070;15.126;2022-12-16T11:00:51;61.60;;;44.77;;
11927;SDS011;6023;47.070;15.126;2022-12-16T11:03:39;55.53;;;40.73;;
11927;SDS011;6023;47.070;15.126;2022-12-16T11:06:25;52.23;;;39.77;;
11927;SDS011;6023;47.070;15.126;2022-12-16T11:12:21;57.40;;;41.23;;
11927;SDS011;6023;47.070;15.126;2022-12-16T11:15:19;50.17;;;37.40;;
11927;SDS011;6023;47.070;15.126;2022-12-16T11:18:10;57.67;;;44.43;;
11927;SDS011;6023;47.070;15.126;2022-12-16T11:21:07;54.87;;;42.80;;
11927;SDS011;6023;47.070;15.126;2022-12-16T11:24:10;53.33;;;40.23;;
11927;SDS011;6023;47.070;15.126;2022-12-16T11:26:59;48.97;;;38.00;;
11927;SDS011;6023;47.070;15.126;2022-12-16T11:29:49;44.00;;;32.87;;
11927;SDS011;6023;47.070;15.126;2022-12-16T11:32:35;45.13;;;33.53;;
11927;SDS011;6023;47.070;15.126;2022-12-16T11:35:23;44.23;;;33.20;;
11927;SDS011;6023;47.070;15.126;2022-12-16T11:38:15;41.83;;;32.10;;
11927;SDS011;6023;47.070;15.126;2022-12-16T11:41:05;44.27;;;33.70;;
11927;SDS011;6023;47.070;15.126;2022-12-16T11:43:52;41.73;;;31.87;;
11927;SDS011;6023;47.070;15.126;2022-12-16T11:46:38;46.60;;;34.20;;
11927;SDS011;6023;47.070;15.126;2022-12-16T11:49:25;43.20;;;32.57;;
11927;SDS011;6023;47.070;15.126;2022-12-16T11:52:14;44.63;;;33.30;;
11927;SDS011;6023;47.070;15.126;2022-12-16T11:55:13;42.03;;;31.47;;
11927;SDS011;6023;47.070;15.126;2022-12-16T11:58:24;45.23;;;35.07;;
11927;SDS011;6023;47.070;15.126;2022-12-16T12:01:17;42.70;;;33.17;;
11927;SDS011;6023;47.070;15.126;2022-12-16T12:04:11;46.07;;;34.83;;
11927;SDS011;6023;47.070;15.126;2022-12-16T12:07:08;46.87;;;34.07;;
11927;SDS011;6023;47.070;15.126;2022-12-16T12:10:20;46.23;;;35.57;;
11927;SDS011;6023;47.070;15.126;2022-12-16T12:13:29;47.90;;;36.67;;
11927;SDS011;6023;47.070;15.126;2022-12-16T12:16:25;47.53;;;35.47;;
11927;SDS011;6023;47.070;15.126;2022-12-16T12:19:17;50.23;;;37.97;;
11927;SDS011;6023;47.070;15.126;2022-12-16T12:22:10;49.70;;;38.80;;
11927;SDS011;6023;47.070;15.126;2022-12-16T12:25:03;47.40;;;38.20;;
11927;SDS011;6023;47.070;15.126;2022-12-16T12:28:06;45.43;;;35.87;;
11927;SDS011;6023;47.070;15.126;2022-12-16T12:31:01;46.87;;;35.50;;
11927;SDS011;6023;47.070;15.126;2022-12-16T12:33:53;51.90;;;38.03;;
11927;SDS011;6023;47.070;15.126;2022-12-16T12:36:48;50.07;;;37.57;;
11927;SDS011;6023;47.070;15.126;2022-12-16T12:39:39;57.27;;;41.77;;
11927;SDS011;6023;47.070;15.126;2022-12-16T12:42:33;49.80;;;38.20;;
11927;SDS011;6023;47.070;15.126;2022-12-16T12:45:28;52.07;;;38.53;;
11927;SDS011;6023;47.070;15.126;2022-12-16T12:48:34;57.47;;;41.53;;
11927;SDS011;6023;47.070;15.126;2022-12-16T12:51:24;49.93;;;39.13;;
11927;SDS011;6023;47.070;15.126;2022-12-16T12:54:14;55.13;;;41.33;;
11927;SDS011;6023;47.070;15.126;2022-12-16T12:57:04;51.87;;;38.80;;
11927;SDS011;6023;47.070;15.126;2022-12-16T12:59:53;50.67;;;40.23;;
11927;SDS011;6023;47.070;15.126;2022-12-16T13:02:45;51.13;;;39.90;;
11927;SDS011;6023;47.070;15.126;2022-12-16T13:05:34;50.47;;;39.23;;
11927;SDS011;6023;47.070;15.126;2022-12-16T13:08:29;56.53;;;42.67;;
11927;SDS011;6023;47.070;15.126;2022-12-16T13:11:22;52.13;;;38.43;;
11927;SDS011;6023;47.070;15.126;2022-12-16T13:17:28;51.87;;;39.67;;
11927;SDS011;6023;47.070;15.126;2022-12-16T13:23:27;51.47;;;39.00;;
11927;SDS011;6023;47.070;15.126;2022-12-16T13:26:14;48.53;;;36.90;;
11927;SDS011;6023;47.070;15.126;2022-12-16T13:29:05;50.97;;;37.73;;
11927;SDS011;6023;47.070;15.126;2022-12-16T13:31:58;49.70;;;37.83;;
11927;SDS011;6023;47.070;15.126;2022-12-16T13:34:46;42.87;;;33.70;;
11927;SDS011;6023;47.070;15.126;2022-12-16T13:37:51;40.43;;;31.47;;
11927;SDS011;6023;47.070;15.126;2022-12-16T13:40:47;46.80;;;34.90;;
11927;SDS011;6023;47.070;15.126;2022-12-16T13:43:45;41.27;;;31.40;;
11927;SDS011;6023;47.070;15.126;2022-12-16T13:46:40;43.43;;;30.77;;
11927;SDS011;6023;47.070;15.126;2022-12-16T13:49:37;42.13;;;31.80;;
11927;SDS011;6023;47.070;15.126;2022-12-16T13:52:34;47.60;;;35.33;;
11927;SDS011;6023;47.070;15.126;2022-12-16T13:55:29;56.27;;;38.53;;
11927;SDS011;6023;47.070;15.126;2022-12-16T13:58:19;49.43;;;35.27;;
11927;SDS011;6023;47.070;15.126;2022-12-16T14:01:10;61.57;;;43.47;;
11927;SDS011;6023;47.070;15.126;2022-12-16T14:03:58;68.10;;;45.47;;
11927;SDS011;6023;47.070;15.126;2022-12-16T14:06:45;79.40;;;53.73;;
11927;SDS011;6023;47.070;15.126;2022-12-16T14:09:32;70.23;;;48.53;;
11927;SDS011;6023;47.070;15.126;2022-12-16T14:12:22;70.57;;;48.40;;
11927;SDS011;6023;47.070;15.126;2022-12-16T14:15:26;56.47;;;39.23;;
11927;SDS011;6023;47.070;15.126;2022-12-16T14:18:22;66.80;;;45.13;;
11927;SDS011;6023;47.070;15.126;2022-12-16T14:21:15;73.37;;;49.60;;
11927;SDS011;6023;47.070;15.126;2022-12-16T14:24:13;59.03;;;40.73;;
11927;SDS011;6023;47.070;15.126;2022-12-16T14:27:06;53.33;;;37.63;;
11927;SDS011;6023;47.070;15.126;2022-12-16T14:29:58;49.17;;;37.23;;
11927;SDS011;6023;47.070;15.126;2022-12-16T14:32:45;53.77;;;38.43;;
11927;SDS011;6023;47.070;15.126;2022-12-16T14:35:31;56.03;;;38.83;;
11927;SDS011;6023;47.070;15.126;2022-12-16T14:38:22;61.57;;;44.30;;
11927;SDS011;6023;47.070;15.126;2022-12-16T14:41:10;61.77;;;43.03;;
11927;SDS011;6023;47.070;15.126;2022-12-16T14:43:57;61.27;;;41.70;;
11927;SDS011;6023;47.070;15.126;2022-12-16T14:46:48;57.90;;;41.70;;
11927;SDS011;6023;47.070;15.126;2022-12-16T14:49:35;52.03;;;37.20;;
11927;SDS011;6023;47.070;15.126;2022-12-16T14:52:23;56.90;;;39.37;;
11927;SDS011;6023;47.070;15.126;2022-12-16T14:55:12;56.37;;;39.30;;
11927;SDS011;6023;47.070;15.126;2022-12-16T14:58:00;57.63;;;39.77;;
11927;SDS011;6023;47.070;15.126;2022-12-16T15:00:48;55.27;;;39.47;;
11927;SDS011;6023;47.070;15.126;2022-12-16T15:03:43;52.53;;;37.50;;
11927;SDS011;6023;47.070;15.126;2022-12-16T15:06:31;50.07;;;35.07;;
11927;SDS011;6023;47.070;15.126;2022-12-16T15:09:20;48.57;;;35.60;;
11927;SDS011;6023;47.070;15.126;2022-12-16T15:12:09;53.17;;;38.40;;
11927;SDS011;6023;47.070;15.126;2022-12-16T15:14:57;61.73;;;44.73;;
11927;SDS011;6023;47.070;15.126;2022-12-16T15:17:46;67.40;;;49.80;;
11927;SDS011;6023;47.070;15.126;2022-12-16T15:20:37;58.05;;;48.90;;
11927;SDS011;6023;47.070;15.126;2022-12-16T15:23:29;52.53;;;40.23;;
11927;SDS011;6023;47.070;15.126;2022-12-16T15:26:16;52.17;;;38.40;;
11927;SDS011;6023;47.070;15.126;2022-12-16T15:29:03;56.07;;;41.70;;
11927;SDS011;6023;47.070;15.126;2022-12-16T15:31:50;58.57;;;43.03;;
11927;SDS011;6023;47.070;15.126;2022-12-16T15:34:37;53.70;;;38.73;;
11927;SDS011;6023;47.070;15.126;2022-12-16T15:37:35;49.83;;;36.87;;
11927;SDS011;6023;47.070;15.126;2022-12-16T15:40:30;53.93;;;39.53;;
11927;SDS011;6023;47.070;15.126;2022-12-16T15:43:24;54.23;;;38.03;;
11927;SDS011;6023;47.070;15.126;2022-12-16T15:46:18;53.70;;;39.07;;
11927;SDS011;6023;47.070;15.126;2022-12-16T15:49:06;45.70;;;34.40;;
11927;SDS011;6023;47.070;15.126;2022-12-16T15:52:02;46.13;;;32.97;;
11927;SDS011;6023;47.070;15.126;2022-12-16T15:55:25;44.87;;;32.70;;
11927;SDS011;6023;47.070;15.126;2022-12-16T15:58:13;42.23;;;32.53;;
11927;SDS011;6023;47.070;15.126;2022-12-16T16:01:03;43.57;;;32.87;;
11927;SDS011;6023;47.070;15.126;2022-12-16T16:03:51;41.93;;;32.20;;
11927;SDS011;6023;47.070;15.126;2022-12-16T16:06:40;41.90;;;32.47;;
11927;SDS011;6023;47.070;15.126;2022-12-16T16:09:40;52.53;;;37.20;;
11927;SDS011;6023;47.070;15.126;2022-12-16T16:12:28;48.83;;;35.40;;
11927;SDS011;6023;47.070;15.126;2022-12-16T16:15:14;44.97;;;33.40;;
11927;SDS011;6023;47.070;15.126;2022-12-16T16:18:15;46.20;;;34.50;;
11927;SDS011;6023;47.070;15.126;2022-12-16T16:21:01;52.30;;;37.90;;